createdAt,value
2019-05-23T00:01:14.264Z,6.70
2019-05-23T00:04:01.477Z,6.70
2019-05-23T00:06:34.491Z,6.70
2019-05-23T00:09:05.407Z,6.70
2019-05-23T00:11:47.936Z,6.80
2019-05-23T00:14:23.948Z,6.90
2019-05-23T00:16:54.499Z,7.00
2019-05-23T00:19:23.770Z,7.10
2019-05-23T00:21:53.790Z,7.20
2019-05-23T00:24:22.194Z,7.30
2019-05-23T00:26:50.925Z,7.20
2019-05-23T00:29:19.359Z,7.10
2019-05-23T00:31:55.981Z,7.20
2019-05-23T00:34:25.606Z,7.20
2019-05-23T00:36:54.794Z,7.20
2019-05-23T00:39:24.561Z,7.10
2019-05-23T00:41:54.222Z,7.10
2019-05-23T00:44:23.012Z,7.10
2019-05-23T00:46:52.580Z,7.10
2019-05-23T00:49:22.015Z,7.10
2019-05-23T00:51:50.553Z,7.00
2019-05-23T00:54:19.495Z,7.10
2019-05-23T00:56:48.087Z,7.10
2019-05-23T00:59:26.509Z,7.10
2019-05-23T01:01:47.607Z,7.10
2019-05-23T01:04:16.746Z,7.20
2019-05-23T01:06:45.232Z,7.10
2019-05-23T01:09:14.403Z,7.10
2019-05-23T01:11:44.286Z,7.00
2019-05-23T01:14:12.869Z,7.00
2019-05-23T01:16:41.626Z,7.00
2019-05-23T01:19:10.194Z,6.90
2019-05-23T01:21:51.761Z,6.90
2019-05-23T01:24:21.874Z,6.90
2019-05-23T01:26:50.458Z,6.80
2019-05-23T01:29:20.698Z,6.80
2019-05-23T01:31:51.304Z,6.80
2019-05-23T01:34:19.883Z,6.80
2019-05-23T01:36:48.766Z,6.70
2019-05-23T01:39:17.347Z,6.70
2019-05-23T01:41:46.610Z,6.60
2019-05-23T01:44:16.238Z,6.60
2019-05-23T01:46:44.711Z,6.60
2019-05-23T01:49:13.387Z,6.50
2019-05-23T01:51:42.397Z,6.50
2019-05-23T01:54:11.267Z,6.50
2019-05-23T01:56:39.914Z,6.50
2019-05-23T01:59:08.325Z,6.40
2019-05-23T02:01:37.872Z,6.40
2019-05-23T02:04:06.883Z,6.50
2019-05-23T02:06:35.293Z,6.40
2019-05-23T02:09:06.194Z,6.20
2019-05-23T02:11:35.344Z,6.10
2019-05-23T02:14:04.288Z,6.10
2019-05-23T02:16:32.686Z,6.00
2019-05-23T02:19:01.570Z,6.00
2019-05-23T02:21:30.452Z,5.90
2019-05-23T02:24:00.513Z,5.90
2019-05-23T02:26:30.554Z,5.90
2019-05-23T02:29:00.633Z,5.90
2019-05-23T02:31:29.107Z,5.90
2019-05-23T02:33:58.052Z,5.90
2019-05-23T02:36:26.792Z,6.00
2019-05-23T02:38:57.070Z,5.90
2019-05-23T02:41:27.114Z,6.00
2019-05-23T02:43:57.731Z,6.00
2019-05-23T02:46:30.692Z,6.00
2019-05-23T02:49:00.806Z,6.10
2019-05-23T02:51:35.593Z,6.10
2019-05-23T02:54:07.180Z,6.10
2019-05-23T02:56:38.466Z,6.10
2019-05-23T02:59:13.233Z,6.10
2019-05-23T03:01:58.093Z,6.20
2019-05-23T03:04:29.671Z,6.30
2019-05-23T03:07:03.439Z,6.30
2019-05-23T03:09:36.762Z,6.30
2019-05-23T03:12:07.743Z,6.20
2019-05-23T03:14:37.808Z,6.20
2019-05-23T03:17:11.068Z,6.10
2019-05-23T03:19:55.763Z,6.10
2019-05-23T03:22:30.727Z,6.10
2019-05-23T03:25:03.124Z,6.00
2019-05-23T03:27:35.362Z,5.90
2019-05-23T03:30:07.947Z,5.80
2019-05-23T03:32:52.833Z,5.80
2019-05-23T03:35:28.588Z,5.80
2019-05-23T03:37:57.287Z,5.80
2019-05-23T03:40:26.321Z,5.70
2019-05-23T03:42:55.362Z,5.60
2019-05-23T03:45:25.412Z,5.60
2019-05-23T03:47:54.090Z,5.60
2019-05-23T03:50:22.861Z,5.60
2019-05-23T03:52:51.399Z,5.60
2019-05-23T03:55:21.244Z,5.60
2019-05-23T03:57:52.758Z,5.70
2019-05-23T04:00:23.769Z,5.60
2019-05-23T04:02:52.187Z,5.70
2019-05-23T04:05:21.938Z,5.70
2019-05-23T04:07:51.414Z,5.70
2019-05-23T04:10:19.879Z,5.70
2019-05-23T04:12:48.699Z,5.80
2019-05-23T04:15:17.817Z,5.80
2019-05-23T04:17:46.297Z,5.90
2019-05-23T04:20:15.451Z,5.90
2019-05-23T04:22:43.867Z,6.00
2019-05-23T04:25:12.394Z,6.10
2019-05-23T04:27:41.163Z,6.20
2019-05-23T04:30:10.764Z,6.30
2019-05-23T04:32:40.054Z,6.40
2019-05-23T04:35:09.201Z,6.50
2019-05-23T04:37:37.606Z,6.70
2019-05-23T04:40:08.785Z,6.80
2019-05-23T04:42:37.194Z,6.90
2019-05-23T04:45:07.341Z,7.00
2019-05-23T04:47:37.755Z,7.10
2019-05-23T04:50:08.470Z,7.30
2019-05-23T04:52:37.834Z,7.30
2019-05-23T04:55:08.599Z,7.40
2019-05-23T04:57:37.562Z,7.50
2019-05-23T05:00:15.360Z,7.60
2019-05-23T05:02:44.727Z,7.70
2019-05-23T05:05:13.647Z,7.80
2019-05-23T05:07:42.070Z,7.80
2019-05-23T05:10:13.181Z,7.90
2019-05-23T05:12:42.589Z,7.80
2019-05-23T05:15:11.530Z,8.00
2019-05-23T05:17:40.971Z,8.10
2019-05-23T05:20:09.619Z,8.30
2019-05-23T05:22:38.023Z,8.50
2019-05-23T05:25:08.473Z,8.60
2019-05-23T05:27:37.182Z,8.60
2019-05-23T05:30:07.025Z,8.40
2019-05-23T05:32:44.820Z,8.50
2019-05-23T05:35:06.629Z,8.40
2019-05-23T05:37:35.182Z,8.50
2019-05-23T05:40:06.112Z,8.80
2019-05-23T05:42:35.846Z,8.90
2019-05-23T05:45:07.425Z,9.20
2019-05-23T05:47:36.697Z,9.30
2019-05-23T05:50:14.073Z,9.60
2019-05-23T05:52:42.791Z,9.80
2019-05-23T05:55:11.722Z,9.90
2019-05-23T05:57:40.129Z,10.10
2019-05-23T06:00:24.637Z,10.30
2019-05-23T06:03:03.752Z,10.40
2019-05-23T06:05:24.798Z,10.60
2019-05-23T06:07:53.875Z,10.80
2019-05-23T06:10:23.217Z,11.00
2019-05-23T06:12:51.709Z,11.20
2019-05-23T06:15:21.569Z,11.40
2019-05-23T06:17:50.172Z,11.50
2019-05-23T06:20:18.826Z,11.50
2019-05-23T06:22:47.867Z,11.60
2019-05-23T06:25:16.419Z,12.00
2019-05-23T06:27:45.461Z,12.00
2019-05-23T06:30:16.342Z,12.20
2019-05-23T06:32:45.876Z,12.20
2019-05-23T06:35:14.356Z,12.30
2019-05-23T06:37:42.821Z,12.30
2019-05-23T06:40:11.681Z,12.40
2019-05-23T06:42:40.085Z,12.60
2019-05-23T06:45:11.677Z,12.70
2019-05-23T06:47:40.520Z,12.90
2019-05-23T06:50:15.985Z,13.00
2019-05-23T06:52:44.591Z,13.00
2019-05-23T06:55:13.239Z,13.20
2019-05-23T06:57:41.801Z,13.20
2019-05-23T07:00:10.745Z,13.40
2019-05-23T07:02:40.045Z,13.60
2019-05-23T07:05:08.910Z,14.10
2019-05-23T07:07:37.553Z,14.30
2019-05-23T07:10:07.069Z,14.60
2019-05-23T07:12:36.107Z,15.10
2019-05-23T07:15:08.866Z,15.60
2019-05-23T07:17:38.030Z,16.30
2019-05-23T07:20:07.679Z,17.00
2019-05-23T07:22:36.699Z,18.10
2019-05-23T07:25:08.317Z,18.90
2019-05-23T07:27:36.714Z,19.70
2019-05-23T07:30:13.888Z,20.60
2019-05-23T07:32:42.367Z,21.00
2019-05-23T07:35:10.848Z,22.30
2019-05-23T07:37:39.254Z,22.70
2019-05-23T07:40:07.971Z,24.10
2019-05-23T07:42:36.366Z,24.30
2019-05-23T07:45:07.861Z,24.90
2019-05-23T07:47:39.911Z,25.60
2019-05-23T07:50:06.992Z,26.00
2019-05-23T07:52:35.564Z,26.20
2019-05-23T07:55:06.761Z,26.90
2019-05-23T07:57:35.536Z,27.10
2019-05-23T08:00:06.734Z,27.70
2019-05-23T08:02:38.844Z,28.80
2019-05-23T08:05:08.118Z,28.10
2019-05-23T08:07:38.010Z,28.30
2019-05-23T08:10:08.155Z,29.40
2019-05-23T08:12:36.718Z,29.70
2019-05-23T08:15:08.356Z,30.30
2019-05-23T08:17:37.923Z,29.90
2019-05-23T08:20:07.307Z,30.00
2019-05-23T08:22:35.707Z,29.30
2019-05-23T08:25:05.056Z,29.60
2019-05-23T08:27:34.024Z,30.10
2019-05-23T08:30:04.447Z,30.10
2019-05-23T08:32:32.858Z,29.80
2019-05-23T08:35:01.477Z,29.30
2019-05-23T08:37:29.986Z,29.20
2019-05-23T08:39:58.468Z,29.00
2019-05-23T08:42:27.202Z,28.80
2019-05-23T08:44:55.779Z,28.60
2019-05-23T08:47:24.785Z,28.30
2019-05-23T08:49:53.263Z,28.80
2019-05-23T08:52:21.730Z,28.60
2019-05-23T08:54:53.221Z,29.30
2019-05-23T08:57:22.579Z,29.20
2019-05-23T08:59:51.035Z,29.50
2019-05-23T09:02:21.266Z,28.10
2019-05-23T09:05:03.617Z,27.90
2019-05-23T09:07:20.067Z,28.20
2019-05-23T09:09:48.647Z,28.30
2019-05-23T09:12:17.417Z,28.50
2019-05-23T09:14:45.833Z,28.60
2019-05-23T09:17:14.746Z,29.70
2019-05-23T09:19:43.372Z,29.90
2019-05-23T09:22:11.920Z,28.40
2019-05-23T09:24:40.377Z,27.40
2019-05-23T09:27:09.029Z,26.90
2019-05-23T09:29:37.734Z,26.10
2019-05-23T09:32:06.313Z,26.50
2019-05-23T09:34:34.977Z,26.60
2019-05-23T09:37:04.969Z,25.50
2019-05-23T09:39:35.396Z,24.30
2019-05-23T09:42:03.807Z,24.80
2019-05-23T09:44:32.278Z,25.10
2019-05-23T09:47:00.682Z,23.80
2019-05-23T09:49:29.087Z,23.00
2019-05-23T09:52:00.994Z,22.40
2019-05-23T09:54:28.218Z,22.70
2019-05-23T09:56:56.688Z,23.30
2019-05-23T09:59:25.561Z,23.70
2019-05-23T10:01:55.378Z,23.60
2019-05-23T10:04:23.898Z,24.50
2019-05-23T10:06:52.372Z,25.10
2019-05-23T10:09:20.781Z,25.80
2019-05-23T10:11:49.486Z,26.40
2019-05-23T10:14:22.233Z,26.10
2019-05-23T10:16:50.811Z,26.20
2019-05-23T10:19:19.250Z,26.80
2019-05-23T10:21:47.725Z,26.70
2019-05-23T10:24:16.316Z,26.80
2019-05-23T10:26:44.825Z,27.20
2019-05-23T10:29:13.256Z,27.90
2019-05-23T10:31:41.798Z,28.10
2019-05-23T10:34:10.265Z,27.00
2019-05-23T10:36:38.681Z,25.80
2019-05-23T10:39:10.718Z,24.80
2019-05-23T10:41:39.193Z,24.00
2019-05-23T10:44:08.073Z,23.80
2019-05-23T10:46:36.651Z,23.70
2019-05-23T10:49:05.119Z,23.40
2019-05-23T10:51:33.534Z,22.90
2019-05-23T10:54:02.071Z,22.90
2019-05-23T10:56:30.554Z,22.70
2019-05-23T10:58:59.129Z,23.50
2019-05-23T11:01:27.885Z,23.50
2019-05-23T11:03:56.425Z,23.50
2019-05-23T11:06:24.898Z,24.30
2019-05-23T11:08:53.420Z,25.40
2019-05-23T11:11:21.949Z,26.20
2019-05-23T11:13:50.717Z,27.10
2019-05-23T11:16:19.321Z,28.20
2019-05-23T11:18:47.811Z,28.70
2019-05-23T11:21:16.198Z,28.90
2019-05-23T11:23:46.423Z,29.60
2019-05-23T11:26:15.048Z,30.20
2019-05-23T11:28:43.538Z,29.70
2019-05-23T11:31:13.440Z,28.80
2019-05-23T11:33:41.862Z,28.50
2019-05-23T11:36:11.119Z,29.10
2019-05-23T11:38:40.166Z,28.90
2019-05-23T11:41:08.575Z,29.00
2019-05-23T11:43:37.527Z,28.90
2019-05-23T11:46:10.440Z,28.40
2019-05-23T11:48:38.972Z,27.50
2019-05-23T11:51:07.443Z,26.20
2019-05-23T11:53:36.014Z,26.00
2019-05-23T11:56:04.787Z,25.70
2019-05-23T11:58:33.237Z,26.00
2019-05-23T12:01:20.177Z,26.50
2019-05-23T12:03:44.787Z,25.80
2019-05-23T12:06:13.658Z,27.00
2019-05-23T12:08:42.069Z,27.20
2019-05-23T12:11:11.270Z,27.50
2019-05-23T12:13:39.740Z,27.80
2019-05-23T12:16:08.678Z,28.30
2019-05-23T12:18:37.641Z,27.80
2019-05-23T12:21:06.063Z,27.20
2019-05-23T12:23:34.639Z,27.10
2019-05-23T12:26:03.111Z,27.20
2019-05-23T12:28:31.581Z,27.10
2019-05-23T12:31:00.164Z,27.20
2019-05-23T12:33:28.652Z,26.60
2019-05-23T12:35:57.114Z,26.70
2019-05-23T12:38:25.613Z,27.10
2019-05-23T12:40:54.042Z,28.10
2019-05-23T12:43:22.517Z,28.70
2019-05-23T12:45:50.917Z,28.40
2019-05-23T12:48:23.907Z,28.40
2019-05-23T12:50:54.532Z,28.00
2019-05-23T12:53:22.957Z,28.30
2019-05-23T12:55:51.436Z,27.80
2019-05-23T12:58:19.939Z,26.10
2019-05-23T13:00:51.237Z,26.00
2019-05-23T13:03:19.839Z,26.70
2019-05-23T13:05:48.310Z,27.20
2019-05-23T13:08:16.948Z,27.40
2019-05-23T13:10:45.543Z,28.20
2019-05-23T13:13:14.418Z,27.70
2019-05-23T13:15:42.976Z,26.70
2019-05-23T13:18:11.386Z,26.00
2019-05-23T13:20:39.907Z,26.10
2019-05-23T13:23:09.035Z,26.00
2019-05-23T13:25:37.810Z,26.10
2019-05-23T13:28:06.356Z,25.70
2019-05-23T13:30:35.184Z,25.20
2019-05-23T13:33:04.279Z,23.60
2019-05-23T13:35:32.774Z,23.70
2019-05-23T13:38:01.419Z,23.70
2019-05-23T13:40:29.961Z,24.20
2019-05-23T13:42:58.404Z,24.40
2019-05-23T13:45:26.874Z,24.00
2019-05-23T13:47:55.278Z,23.70
2019-05-23T13:50:24.351Z,24.00
2019-05-23T13:52:52.756Z,24.60
2019-05-23T13:55:22.185Z,25.10
2019-05-23T13:57:50.597Z,25.00
2019-05-23T14:00:20.626Z,25.20
2019-05-23T14:02:49.027Z,25.60
2019-05-23T14:05:19.570Z,25.20
2019-05-23T14:07:48.044Z,25.40
2019-05-23T14:10:16.672Z,25.30
2019-05-23T14:12:45.417Z,25.80
2019-05-23T14:15:17.008Z,25.30
2019-05-23T14:17:46.480Z,24.80
2019-05-23T14:20:15.730Z,24.60
2019-05-23T14:22:46.817Z,24.60
2019-05-23T14:25:15.556Z,24.20
2019-05-23T14:27:48.672Z,24.00
2019-05-23T14:30:19.150Z,24.60
2019-05-23T14:32:49.254Z,24.60
2019-05-23T14:35:22.352Z,24.40
2019-05-23T14:37:52.385Z,24.30
2019-05-23T14:40:21.034Z,24.20
2019-05-23T14:42:53.245Z,23.80
2019-05-23T14:45:38.961Z,23.50
2019-05-23T14:48:17.861Z,23.10
2019-05-23T14:50:50.727Z,22.70
2019-05-23T14:53:20.775Z,22.40
2019-05-23T14:55:49.450Z,22.70
2019-05-23T14:58:17.857Z,22.60
2019-05-23T15:00:47.984Z,22.50
2019-05-23T15:03:16.397Z,22.20
2019-05-23T15:05:44.810Z,22.30
2019-05-23T15:08:13.221Z,22.30
2019-05-23T15:10:41.697Z,22.40
2019-05-23T15:13:10.174Z,22.20
2019-05-23T15:15:38.613Z,22.40
2019-05-23T15:18:07.176Z,22.30
2019-05-23T15:20:35.640Z,22.30
2019-05-23T15:23:04.125Z,22.20
2019-05-23T15:25:32.613Z,22.30
2019-05-23T15:28:01.142Z,22.20
2019-05-23T15:30:29.547Z,22.10
2019-05-23T15:32:57.959Z,21.80
2019-05-23T15:35:26.538Z,21.50
2019-05-23T15:37:54.945Z,21.60
2019-05-23T15:40:23.788Z,21.50
2019-05-23T15:42:52.835Z,21.60
2019-05-23T15:45:21.233Z,21.70
2019-05-23T15:47:50.130Z,21.50
2019-05-23T15:50:20.298Z,21.30
2019-05-23T15:52:56.294Z,21.10
2019-05-23T15:55:29.557Z,21.00
2019-05-23T15:57:59.730Z,21.20
2019-05-23T16:00:38.678Z,21.10
2019-05-23T16:03:13.855Z,21.30
2019-05-23T16:05:42.201Z,21.00
2019-05-23T16:08:10.853Z,21.20
2019-05-23T16:10:39.693Z,21.10
2019-05-23T16:13:08.105Z,21.00
2019-05-23T16:15:36.972Z,21.00
2019-05-23T16:18:05.696Z,20.90
2019-05-23T16:20:34.088Z,20.80
2019-05-23T16:23:02.572Z,20.80
2019-05-23T16:25:31.111Z,20.70
2019-05-23T16:28:00.413Z,20.60
2019-05-23T16:30:28.959Z,20.60
2019-05-23T16:32:57.427Z,20.80
2019-05-23T16:35:26.185Z,20.60
2019-05-23T16:37:54.617Z,20.50
2019-05-23T16:40:23.077Z,20.30
2019-05-23T16:42:51.477Z,20.10
2019-05-23T16:45:20.858Z,19.90
2019-05-23T16:47:49.341Z,19.70
2019-05-23T16:50:17.756Z,19.60
2019-05-23T16:52:46.311Z,19.60
2019-05-23T16:55:16.782Z,19.50
2019-05-23T16:57:49.965Z,19.40
2019-05-23T17:00:29.100Z,19.30
2019-05-23T17:03:11.175Z,19.30
2019-05-23T17:05:53.171Z,19.10
2019-05-23T17:08:35.106Z,18.90
2019-05-23T17:11:17.445Z,18.80
2019-05-23T17:13:47.494Z,18.80
2019-05-23T17:16:23.829Z,18.80
2019-05-23T17:18:59.553Z,18.80
2019-05-23T17:21:35.681Z,18.70
2019-05-23T17:24:08.615Z,18.70
2019-05-23T17:26:38.647Z,18.60
2019-05-23T17:29:20.446Z,18.60
2019-05-23T17:31:50.525Z,18.50
2019-05-23T17:34:19.084Z,18.50
2019-05-23T17:36:47.484Z,18.40
2019-05-23T17:39:16.561Z,18.30
2019-05-23T17:41:45.034Z,18.20
2019-05-23T17:44:13.442Z,18.20
2019-05-23T17:46:42.008Z,18.20
2019-05-23T17:49:10.416Z,18.10
2019-05-23T17:51:38.890Z,18.10
2019-05-23T17:54:08.460Z,18.00
2019-05-23T17:56:36.872Z,18.00
2019-05-23T17:59:05.321Z,17.90
2019-05-23T18:01:34.061Z,17.90
2019-05-23T18:04:02.858Z,17.80
2019-05-23T18:06:31.532Z,17.70
2019-05-23T18:09:00.026Z,17.60
2019-05-23T18:11:28.437Z,17.50
2019-05-23T18:13:56.918Z,17.40
2019-05-23T18:16:25.698Z,17.30
2019-05-23T18:18:54.109Z,17.20
2019-05-23T18:21:23.150Z,17.00
2019-05-23T18:23:51.626Z,16.90
2019-05-23T18:26:20.057Z,16.80
2019-05-23T18:28:48.630Z,16.60
2019-05-23T18:31:18.680Z,16.40
2019-05-23T18:33:47.078Z,16.30
2019-05-23T18:36:15.902Z,16.20
2019-05-23T18:38:44.750Z,16.00
2019-05-23T18:41:13.383Z,15.90
2019-05-23T18:43:43.163Z,15.80
2019-05-23T18:46:13.505Z,15.60
2019-05-23T18:48:42.253Z,15.50
2019-05-23T18:51:11.100Z,15.30
2019-05-23T18:53:39.497Z,15.20
2019-05-23T18:56:08.254Z,15.00
2019-05-23T18:58:36.718Z,14.80
2019-05-23T19:01:13.847Z,14.70
2019-05-23T19:03:42.441Z,14.60
2019-05-23T19:06:10.917Z,14.50
2019-05-23T19:08:39.489Z,14.30
2019-05-23T19:11:19.983Z,14.30
2019-05-23T19:13:38.099Z,14.20
2019-05-23T19:16:06.578Z,14.10
2019-05-23T19:18:36.224Z,14.00
2019-05-23T19:21:06.368Z,13.90
2019-05-23T19:23:35.830Z,13.70
2019-05-23T19:26:07.481Z,13.70
2019-05-23T19:28:35.901Z,13.60
2019-05-23T19:31:04.758Z,13.50
2019-05-23T19:33:34.420Z,13.40
2019-05-23T19:36:03.013Z,13.30
2019-05-23T19:38:32.397Z,13.10
2019-05-23T19:41:00.971Z,13.30
2019-05-23T19:43:29.637Z,13.30
2019-05-23T19:45:58.070Z,13.30
2019-05-23T19:48:27.158Z,13.30
2019-05-23T19:50:55.638Z,13.30
2019-05-23T19:53:24.121Z,13.10
2019-05-23T19:55:52.900Z,12.90
2019-05-23T19:58:21.409Z,12.80
2019-05-23T20:00:49.985Z,12.70
2019-05-23T20:03:18.825Z,12.50
2019-05-23T20:05:51.620Z,12.40
2019-05-23T20:08:20.033Z,12.30
2019-05-23T20:10:48.602Z,12.20
2019-05-23T20:13:18.659Z,12.10
2019-05-23T20:15:47.263Z,12.00
2019-05-23T20:18:15.961Z,11.90
2019-05-23T20:20:44.672Z,11.80
2019-05-23T20:23:15.792Z,11.80
2019-05-23T20:25:43.338Z,11.80
2019-05-23T20:28:11.812Z,11.80
2019-05-23T20:30:47.737Z,11.70
2019-05-23T20:33:16.222Z,11.60
2019-05-23T20:35:44.778Z,11.60
2019-05-23T20:38:13.419Z,11.50
2019-05-23T20:40:41.919Z,11.40
2019-05-23T20:43:10.561Z,11.40
2019-05-23T20:45:39.029Z,11.40
2019-05-23T20:48:07.880Z,11.40
2019-05-23T20:50:36.522Z,11.30
2019-05-23T20:53:05.491Z,11.30
2019-05-23T20:55:35.236Z,11.20
2019-05-23T20:58:04.431Z,11.20
2019-05-23T21:00:34.650Z,11.20
2019-05-23T21:03:03.774Z,11.20
2019-05-23T21:05:32.617Z,11.10
2019-05-23T21:08:01.097Z,11.00
2019-05-23T21:10:48.924Z,11.00
2019-05-23T21:13:17.964Z,10.90
2019-05-23T21:15:46.816Z,10.80
2019-05-23T21:18:15.453Z,10.70
2019-05-23T21:20:44.107Z,10.70
2019-05-23T21:23:12.789Z,10.70
2019-05-23T21:25:42.847Z,10.80
2019-05-23T21:28:11.376Z,10.90
2019-05-23T21:30:39.798Z,11.10
2019-05-23T21:33:08.202Z,11.20
2019-05-23T21:35:36.618Z,11.20
2019-05-23T21:38:05.086Z,11.20
2019-05-23T21:40:36.572Z,11.30
2019-05-23T21:43:05.412Z,11.30
2019-05-23T21:45:34.171Z,11.30
2019-05-23T21:48:02.646Z,11.30
2019-05-23T21:50:31.209Z,11.20
2019-05-23T21:52:59.626Z,11.20
2019-05-23T21:55:36.293Z,11.20
2019-05-23T21:58:05.846Z,11.20
2019-05-23T22:01:05.912Z,11.10
2019-05-23T22:03:36.893Z,11.10
2019-05-23T22:06:08.462Z,11.10
2019-05-23T22:08:37.710Z,11.00
2019-05-23T22:11:07.363Z,11.00
2019-05-23T22:13:35.826Z,10.90
2019-05-23T22:16:04.416Z,10.90
2019-05-23T22:18:32.976Z,10.80
2019-05-23T22:21:01.473Z,10.70
2019-05-23T22:23:29.887Z,10.80
2019-05-23T22:25:58.427Z,10.70
2019-05-23T22:28:26.834Z,10.70
2019-05-23T22:30:55.242Z,10.60
2019-05-23T22:33:40.141Z,10.60
2019-05-23T22:36:08.620Z,10.50
2019-05-23T22:38:37.106Z,10.50
2019-05-23T22:41:05.581Z,10.50
2019-05-23T22:43:33.991Z,10.40
2019-05-23T22:46:02.401Z,10.30
2019-05-23T22:48:31.574Z,10.30
2019-05-23T22:50:59.983Z,10.30
2019-05-23T22:53:28.413Z,10.30
2019-05-23T22:55:56.883Z,10.30
2019-05-23T22:58:25.294Z,10.30
2019-05-23T23:00:53.725Z,10.20
2019-05-23T23:03:22.161Z,10.10
2019-05-23T23:05:50.585Z,10.10
2019-05-23T23:08:18.991Z,9.90
2019-05-23T23:10:47.525Z,9.70
2019-05-23T23:13:16.110Z,9.60
2019-05-23T23:15:44.597Z,9.50
2019-05-23T23:18:13.051Z,9.40
2019-05-23T23:20:41.507Z,9.30
2019-05-23T23:23:10.043Z,9.20
2019-05-23T23:25:38.446Z,9.10
2019-05-23T23:28:06.993Z,9.20
2019-05-23T23:30:37.206Z,9.10
2019-05-23T23:33:05.618Z,9.00
2019-05-23T23:35:34.862Z,9.10
2019-05-23T23:38:03.342Z,8.90
2019-05-23T23:40:31.810Z,8.90
2019-05-23T23:43:00.224Z,8.80
2019-05-23T23:45:46.513Z,8.80
2019-05-23T23:48:32.353Z,8.90
2019-05-23T23:51:18.141Z,9.00
2019-05-23T23:54:04.462Z,8.90
2019-05-23T23:56:50.645Z,9.00
2019-05-23T23:59:18.362Z,8.70
